Time;durP1;ratioP1;P1;durP2;ratioP2;P2;SDS_P1;SDS_P2;PMS_P1;PMS_P2;Temp;Humidity;BMP_temperature;BMP_pressure;BME280_temperature;BME280_humidity;BME280_pressure;Samples;Min_cycle;Max_cycle;Signal;HPM_P1;HPM_P2
2022/07/25 00:00:47;;;;;;;6.30;3.05;;;;;;;26.31;41.42;101077.78;5127443;28;20428;-75
2022/07/25 00:03:19;;;;;;;7.82;3.17;;;;;;;26.28;41.54;101079.09;5131720;28;20420;-75
2022/07/25 00:05:51;;;;;;;4.55;2.70;;;;;;;26.25;41.33;101076.09;5130141;28;21025;-75
2022/07/25 00:08:24;;;;;;;4.93;3.08;;;;;;;26.21;41.30;101071.16;5131695;28;20835;-75
2022/07/25 00:10:56;;;;;;;5.20;2.88;;;;;;;26.19;41.19;101062.47;5130228;28;20783;-75
2022/07/25 00:13:28;;;;;;;4.78;2.90;;;;;;;26.17;41.10;101058.38;5129478;28;20411;-76
2022/07/25 00:16:02;;;;;;;4.85;2.92;;;;;;;26.14;41.16;101059.69;5125434;28;20424;-76
2022/07/25 00:18:34;;;;;;;5.63;3.20;;;;;;;26.11;41.11;101049.38;5133042;28;20418;-76
2022/07/25 00:21:07;;;;;;;5.03;2.65;;;;;;;26.08;40.90;101044.44;5133783;28;20432;-76
2022/07/25 00:23:39;;;;;;;4.90;2.90;;;;;;;26.06;40.87;101041.16;5126873;28;20423;-76
2022/07/25 00:26:11;;;;;;;5.65;2.72;;;;;;;26.03;40.82;101038.94;5126744;28;20423;-75
2022/07/25 00:28:44;;;;;;;4.32;2.90;;;;;;;25.96;40.80;101030.19;5128431;28;20432;-75
2022/07/25 00:31:17;;;;;;;7.03;3.38;;;;;;;25.95;40.74;101028.53;5127609;28;20408;-76
2022/07/25 00:33:50;;;;;;;4.68;2.95;;;;;;;25.92;40.78;101029.03;5133171;28;20427;-75
2022/07/25 00:36:22;;;;;;;4.07;2.80;;;;;;;25.68;40.98;100999.41;5131120;28;20412;-75
2022/07/25 00:38:54;;;;;;;5.00;2.63;;;;;;;25.86;41.04;101008.38;5133206;28;20423;-75
2022/07/25 00:41:27;;;;;;;5.30;3.30;;;;;;;25.71;40.82;100996.22;5128036;28;20420;-74
2022/07/25 00:43:59;;;;;;;7.13;3.10;;;;;;;25.73;40.89;101007.59;5128841;28;20750;-75
2022/07/25 00:46:32;;;;;;;6.35;3.60;;;;;;;25.66;41.21;101004.25;5127069;28;20412;-75
2022/07/25 00:49:05;;;;;;;8.50;3.50;;;;;;;25.62;41.35;100999.59;5133681;28;20422;-75
2022/07/25 00:51:37;;;;;;;8.07;3.50;;;;;;;25.61;41.34;100998.78;5128700;28;20434;-75
2022/07/25 00:54:10;;;;;;;4.65;3.42;;;;;;;25.59;41.42;100984.66;5127702;28;20418;-75
2022/07/25 00:56:43;;;;;;;4.25;3.25;;;;;;;25.55;41.61;100991.66;5128559;28;20431;-75
2022/07/25 00:59:16;;;;;;;12.40;3.90;;;;;;;25.53;41.68;100988.34;5126455;28;20529;-75
2022/07/25 01:01:50;;;;;;;5.65;3.13;;;;;;;25.54;41.77;100987.28;5127548;28;20483;-75
2022/07/25 01:04:22;;;;;;;5.88;3.28;;;;;;;25.55;41.89;100980.81;5129848;28;20426;-75
2022/07/25 01:06:55;;;;;;;9.05;3.55;;;;;;;25.45;41.99;100969.81;5128151;28;20795;-75
2022/07/25 01:09:28;;;;;;;6.30;3.53;;;;;;;25.55;42.02;100980.81;5126095;28;20417;-76
2022/07/25 01:12:00;;;;;;;5.50;3.50;;;;;;;25.55;42.23;100986.25;5125031;28;20428;-75
2022/07/25 01:14:32;;;;;;;5.82;3.40;;;;;;;25.54;42.23;100973.75;5128133;28;20825;-75
2022/07/25 01:17:06;;;;;;;6.27;3.43;;;;;;;25.54;42.25;100977.28;5127724;28;20435;-75
2022/07/25 01:19:38;;;;;;;8.17;3.90;;;;;;;25.54;42.37;100982.69;5125953;28;20435;-76
2022/07/25 01:22:12;;;;;;;7.60;3.60;;;;;;;25.52;42.65;100970.50;5126694;28;20457;-76
2022/07/25 01:24:44;;;;;;;4.82;3.38;;;;;;;25.54;42.61;100968.34;5132421;28;20946;-76
2022/07/25 01:27:16;;;;;;;4.75;3.08;;;;;;;25.43;42.52;100951.16;5131837;28;20530;-77
2022/07/25 01:29:49;;;;;;;7.53;3.50;;;;;;;25.46;42.81;100961.47;5131304;28;20450;-76
2022/07/25 01:32:21;;;;;;;6.85;3.75;;;;;;;25.45;43.02;100961.72;5140313;28;20444;-76
2022/07/25 01:34:53;;;;;;;5.88;3.72;;;;;;;25.43;42.98;100961.16;5136095;28;20428;-76
2022/07/25 01:37:27;;;;;;;5.93;3.10;;;;;;;25.45;43.20;100959.00;5127126;28;20424;-77
2022/07/25 01:39:59;;;;;;;6.88;3.45;;;;;;;25.46;43.16;100952.56;5129569;28;20415;-76
2022/07/25 01:42:32;;;;;;;8.68;3.65;;;;;;;25.31;43.23;100936.91;5132788;28;20428;-76
2022/07/25 01:45:06;;;;;;;6.55;3.80;;;;;;;25.44;43.29;100946.56;5137561;28;20436;-76
2022/07/25 01:47:38;;;;;;;7.38;3.70;;;;;;;25.42;43.35;100943.28;5137512;28;20793;-76
2022/07/25 01:50:11;;;;;;;7.88;3.90;;;;;;;25.40;43.42;100940.84;5132648;28;20424;-76
2022/07/25 01:52:45;;;;;;;7.85;4.18;;;;;;;25.40;43.51;100926.50;5129422;28;20416;-76
2022/07/25 01:55:18;;;;;;;6.10;3.70;;;;;;;25.38;43.63;100920.50;5130131;28;20864;-77
2022/07/25 01:57:50;;;;;;;7.95;3.97;;;;;;;25.33;43.77;100915.00;5131752;28;20502;-75
2022/07/25 02:00:23;;;;;;;6.22;3.92;;;;;;;25.29;43.90;100912.81;5130786;28;20746;-76
2022/07/25 02:05:41;;;;;;;6.30;3.78;;;;;;;25.23;44.22;100897.56;5128975;28;20413;-75
2022/07/25 02:08:15;;;;;;;6.80;3.97;;;;;;;25.20;44.28;100895.34;5130282;28;20480;-75
2022/07/25 02:10:47;;;;;;;7.45;3.67;;;;;;;25.16;44.28;100899.63;5130468;28;20431;-75
2022/07/25 02:13:20;;;;;;;9.13;3.60;;;;;;;24.97;44.42;100871.16;5130844;28;20495;-75
2022/07/25 02:15:53;;;;;;;6.97;3.90;;;;;;;25.14;44.38;100893.63;5137001;28;20426;-76
2022/07/25 02:18:25;;;;;;;6.75;3.88;;;;;;;25.10;44.60;100887.06;5130525;28;20507;-76
2022/07/25 02:20:57;;;;;;;6.95;3.50;;;;;;;25.09;44.69;100885.44;5130129;28;20423;-76
2022/07/25 02:23:31;;;;;;;8.02;4.10;;;;;;;25.08;44.63;100878.38;5133522;28;20412;-76
2022/07/25 02:26:03;;;;;;;9.38;4.45;;;;;;;25.06;44.77;100875.09;5131399;28;20412;-75
2022/07/25 02:28:36;;;;;;;6.22;3.60;;;;;;;25.06;44.80;100877.81;5130364;28;20433;-75
2022/07/25 02:31:09;;;;;;;5.90;3.78;;;;;;;25.06;44.90;100869.69;5130818;28;20436;-74
2022/07/25 02:33:41;;;;;;;6.63;3.88;;;;;;;25.01;45.00;100875.81;5129259;28;20439;-75
2022/07/25 02:36:13;;;;;;;6.18;3.78;;;;;;;25.05;44.99;100868.88;5126512;28;20419;-76
2022/07/25 02:38:47;;;;;;;7.20;3.30;;;;;;;25.05;45.09;100868.03;5130513;28;20417;-75
2022/07/25 02:41:19;;;;;;;6.93;3.85;;;;;;;25.03;45.12;100876.41;5130492;28;21601;-76
2022/07/25 02:43:51;;;;;;;7.40;3.80;;;;;;;25.04;45.18;100871.81;5130150;28;20499;-76
2022/07/25 02:46:24;;;;;;;4.88;3.38;;;;;;;25.01;45.39;100866.91;5128263;28;21005;-75
2022/07/25 02:48:56;;;;;;;8.05;3.55;;;;;;;25.03;45.44;100867.50;5129978;28;20765;-76
2022/07/25 02:51:28;;;;;;;6.47;3.50;;;;;;;25.01;45.48;100867.72;5129091;28;20454;-76
2022/07/25 02:54:02;;;;;;;7.60;3.45;;;;;;;25.00;45.51;100858.00;5128795;28;20428;-76
2022/07/25 02:56:34;;;;;;;7.28;3.70;;;;;;;24.99;45.61;100858.22;5136320;28;20430;-76
2022/07/25 02:59:07;;;;;;;5.70;3.58;;;;;;;24.97;45.72;100849.56;5136415;28;20944;-75
2022/07/25 03:01:39;;;;;;;6.97;3.85;;;;;;;24.96;45.85;100847.91;5128039;28;20758;-75
2022/07/25 03:04:11;;;;;;;6.82;3.42;;;;;;;24.93;45.87;100840.28;5128297;28;20438;-75
2022/07/25 03:06:43;;;;;;;8.25;3.80;;;;;;;24.90;45.92;100847.03;5133245;28;20444;-75
2022/07/25 03:09:17;;;;;;;5.07;3.70;;;;;;;24.88;45.97;100842.91;5130107;28;20421;-76
2022/07/25 03:11:50;;;;;;;8.85;3.97;;;;;;;24.85;46.11;100842.34;5127261;28;20971;-76
2022/07/25 03:14:23;;;;;;;9.50;3.78;;;;;;;24.81;46.14;100845.78;5129995;28;20428;-76
2022/07/25 03:16:55;;;;;;;7.85;3.83;;;;;;;24.80;46.29;100842.25;5128989;28;20499;-76
2022/07/25 03:19:27;;;;;;;6.80;4.30;;;;;;;24.77;46.43;100845.44;5130815;28;20416;-76
2022/07/25 03:21:59;;;;;;;5.28;3.60;;;;;;;24.74;46.50;100845.91;5133213;28;20425;-76
2022/07/25 03:24:33;;;;;;;7.20;3.55;;;;;;;24.72;46.64;100842.66;5129136;28;20423;-76
2022/07/25 03:27:05;;;;;;;4.95;3.47;;;;;;;24.68;46.43;100851.47;5129351;28;20499;-76
2022/07/25 03:29:38;;;;;;;7.20;3.50;;;;;;;24.70;46.54;100860.16;5128545;28;20412;-76
2022/07/25 03:32:10;;;;;;;6.07;3.38;;;;;;;24.68;46.63;100855.00;5128213;28;20901;-76
2022/07/25 03:34:43;;;;;;;6.28;3.67;;;;;;;24.66;46.61;100849.03;5136999;28;20428;-76
2022/07/25 03:37:15;;;;;;;10.25;3.88;;;;;;;24.65;46.50;100847.38;5131025;28;20420;-76
2022/07/25 03:39:49;;;;;;;6.03;3.80;;;;;;;24.66;46.52;100859.84;5127885;28;20424;-76
2022/07/25 03:42:22;;;;;;;9.68;4.28;;;;;;;24.65;46.60;100858.16;5128151;28;20408;-76
2022/07/25 03:44:55;;;;;;;9.77;4.07;;;;;;;24.64;46.44;100856.53;5131672;28;20418;-77
2022/07/25 03:47:27;;;;;;;7.20;4.28;;;;;;;24.65;46.40;100852.78;5135362;28;20955;-76
2022/07/25 03:50:00;;;;;;;8.10;4.03;;;;;;;24.65;46.31;100855.47;5126062;28;20427;-76
2022/07/25 03:52:32;;;;;;;6.57;3.63;;;;;;;24.66;46.29;100854.44;5130581;28;20421;-76
2022/07/25 03:55:08;;;;;;;8.23;4.35;;;;;;;24.65;45.94;100852.78;5128332;28;20436;-76
2022/07/25 03:57:40;;;;;;;6.13;3.67;;;;;;;24.66;46.04;100840.94;5130724;28;21133;-76
2022/07/25 04:00:13;;;;;;;6.28;3.72;;;;;;;24.66;45.92;100838.22;5130879;28;20432;-76
2022/07/25 04:02:46;;;;;;;8.32;3.90;;;;;;;24.67;45.62;100844.44;5129296;28;20425;-76
2022/07/25 04:05:18;;;;;;;8.27;3.80;;;;;;;24.70;45.58;100842.06;5130384;28;20813;-76
2022/07/25 04:07:50;;;;;;;6.72;4.10;;;;;;;24.68;45.37;100833.38;5126554;28;20901;-76
2022/07/25 04:10:24;;;;;;;6.93;3.80;;;;;;;24.71;45.26;100846.41;5127086;28;20491;-75
2022/07/25 04:12:56;;;;;;;9.98;4.72;;;;;;;24.71;45.28;100832.09;5130227;28;20408;-76
2022/07/25 04:15:28;;;;;;;6.93;3.70;;;;;;;24.69;45.21;100829.63;5133192;28;20409;-76
2022/07/25 04:18:00;;;;;;;8.32;3.67;;;;;;;24.71;45.19;100835.59;5130154;28;20438;-76
2022/07/25 04:20:33;;;;;;;10.13;3.78;;;;;;;24.70;45.20;100836.66;5128584;28;20447;-76
2022/07/25 04:23:05;;;;;;;6.25;3.67;;;;;;;24.70;45.17;100839.38;5135789;28;20420;-76
2022/07/25 04:25:39;;;;;;;6.55;3.42;;;;;;;24.69;45.03;100837.75;5128734;28;20432;-76
2022/07/25 04:28:11;;;;;;;7.28;3.75;;;;;;;24.68;45.06;100830.69;5126451;28;20439;-76
2022/07/25 04:30:44;;;;;;;7.53;3.75;;;;;;;24.68;45.10;100836.09;5125661;28;20941;-76
2022/07/25 04:33:16;;;;;;;9.15;3.92;;;;;;;24.66;44.90;100830.13;5131286;28;20424;-76
2022/07/25 04:35:49;;;;;;;8.57;3.70;;;;;;;24.67;45.00;100833.63;5131619;28;20410;-76
2022/07/25 04:38:21;;;;;;;8.27;3.50;;;;;;;24.71;44.94;100830.19;5134266;28;20496;-76
2022/07/25 04:40:55;;;;;;;8.05;3.40;;;;;;;24.72;44.74;100826.44;5128102;28;20844;-74
2022/07/25 04:43:27;;;;;;;6.68;3.70;;;;;;;24.74;44.82;100839.69;5133008;28;20428;-76
2022/07/25 04:46:00;;;;;;;10.07;3.58;;;;;;;24.74;44.68;100829.72;5126819;28;20422;-76
2022/07/25 04:48:32;;;;;;;8.05;3.30;;;;;;;24.75;44.68;100820.56;5131141;28;20420;-76
2022/07/25 04:51:04;;;;;;;8.10;3.53;;;;;;;24.80;44.61;100814.41;5127276;28;20452;-76
2022/07/25 04:53:37;;;;;;;8.63;3.70;;;;;;;24.86;44.62;100808.03;5127870;28;20424;-76
2022/07/25 04:56:10;;;;;;;6.65;3.35;;;;;;;24.85;44.46;100793.72;5136176;28;20434;-76
2022/07/25 04:58:43;;;;;;;5.85;3.38;;;;;;;24.99;44.27;100804.19;5127363;28;20430;-76
2022/07/25 05:01:15;;;;;;;7.90;3.42;;;;;;;25.06;44.23;100821.88;5126912;28;20418;-76
2022/07/25 05:03:47;;;;;;;4.13;3.10;;;;;;;25.14;44.29;100817.97;5127198;28;20896;-76
2022/07/25 05:06:20;;;;;;;5.82;3.08;;;;;;;25.19;44.17;100815.34;5125718;28;21724;-76
2022/07/25 05:08:52;;;;;;;10.63;3.33;;;;;;;25.29;44.03;100807.38;5126744;28;20458;-76
2022/07/25 05:11:26;;;;;;;10.13;3.43;;;;;;;25.39;43.98;100808.59;5127188;28;20921;-76
2022/07/25 05:13:58;;;;;;;10.30;3.73;;;;;;;25.47;43.97;100814.41;5130495;28;20424;-77
2022/07/25 05:16:31;;;;;;;10.65;3.33;;;;;;;25.56;43.75;100814.78;5134202;28;20443;-75
2022/07/25 05:19:03;;;;;;;8.77;3.38;;;;;;;25.69;43.70;100813.59;5128386;28;20432;-75
2022/07/25 05:21:37;;;;;;;6.13;2.67;;;;;;;25.80;43.58;100814.53;5132078;28;20419;-76
2022/07/25 05:24:09;;;;;;;6.32;3.20;;;;;;;25.92;43.39;100812.53;5136486;28;20896;-76
2022/07/25 05:26:43;;;;;;;6.85;2.80;;;;;;;26.06;43.28;100819.22;5144264;28;20500;-76
2022/07/25 05:29:15;;;;;;;9.27;3.28;;;;;;;26.25;43.25;100821.59;5127929;28;20424;-76
2022/07/25 05:31:48;;;;;;;4.32;2.80;;;;;;;26.82;42.71;100813.78;5130584;28;20813;-76
2022/07/25 05:34:20;;;;;;;7.43;2.58;;;;;;;27.85;41.49;100809.84;5129835;28;20479;-76
2022/07/25 05:36:53;;;;;;;9.07;2.67;;;;;;;28.91;40.37;100808.41;5129479;28;20430;-76
2022/07/25 05:39:25;;;;;;;9.23;2.60;;;;;;;29.69;39.52;100818.06;5128743;28;20420;-76
2022/07/25 05:41:58;;;;;;;9.45;2.53;;;;;;;30.19;38.98;100804.50;5134781;28;20423;-74
2022/07/25 05:44:35;;;;;;;6.53;2.10;;;;;;;30.03;39.12;100806.50;5146748;28;20429;-76
2022/07/25 05:47:13;;;;;;;8.05;2.10;;;;;;;29.59;39.52;100805.28;5144815;28;20425;-75
2022/07/25 05:49:45;;;;;;;3.13;1.70;;;;;;;29.32;39.93;100821.97;5129643;28;21031;-74
2022/07/25 05:52:18;;;;;;;7.77;2.30;;;;;;;28.87;40.29;100807.31;5137672;28;20433;-74
2022/07/25 05:54:51;;;;;;;2.33;1.50;;;;;;;28.53;40.76;100812.47;5135888;28;20424;-74
2022/07/25 05:57:24;;;;;;;5.72;1.70;;;;;;;28.20;40.96;100821.88;5129066;28;20428;-75
2022/07/25 05:59:57;;;;;;;1.35;1.10;;;;;;;27.93;41.25;100817.44;5129029;28;20947;-75
2022/07/25 06:02:29;;;;;;;4.82;1.50;;;;;;;27.73;41.36;100822.78;5132270;28;20850;-75
2022/07/25 06:05:01;;;;;;;2.88;1.23;;;;;;;27.55;41.60;100810.47;5129209;28;20418;-75
2022/07/25 06:07:33;;;;;;;3.30;1.15;;;;;;;27.50;41.60;100822.13;5129348;28;20430;-75
2022/07/25 06:10:06;;;;;;;4.20;1.42;;;;;;;27.51;41.59;100823.75;5130888;28;20424;-74
2022/07/25 06:12:40;;;;;;;3.05;1.60;;;;;;;27.43;41.78;100829.69;5132910;28;20812;-75
2022/07/25 06:15:12;;;;;;;2.90;1.30;;;;;;;27.31;41.95;100839.91;5104248;28;20457;-75
2022/07/25 06:17:45;;;;;;;2.50;1.20;;;;;;;27.12;42.27;100832.16;5135766;28;20500;-75
2022/07/25 06:20:17;;;;;;;4.75;1.80;;;;;;;26.89;42.34;100827.94;5150255;28;20426;-76
2022/07/25 06:22:50;;;;;;;6.70;1.55;;;;;;;26.82;42.60;100842.75;5151591;28;20772;-76
2022/07/25 06:25:23;;;;;;;4.47;1.65;;;;;;;26.70;42.95;100839.38;5138961;28;20429;-76
2022/07/25 06:27:56;;;;;;;3.97;1.88;;;;;;;26.60;43.12;100827.41;5142304;28;20412;-76
2022/07/25 06:30:29;;;;;;;4.30;1.70;;;;;;;26.53;43.34;100829.50;5131541;28;20499;-77
2022/07/25 06:33:02;;;;;;;6.15;1.58;;;;;;;26.41;43.49;100807.13;5125634;28;20420;-79
2022/07/25 06:35:35;;;;;;;6.50;1.60;;;;;;;26.30;43.91;100822.47;5148667;28;20410;-77
2022/07/25 06:38:07;;;;;;;7.57;2.07;;;;;;;26.19;44.11;100823.41;5150227;28;20411;-77
2022/07/25 06:40:39;;;;;;;4.15;1.75;;;;;;;26.02;44.24;100820.00;5151135;28;20440;-77
2022/07/25 06:43:13;;;;;;;7.78;1.95;;;;;;;25.95;44.42;100817.47;5148449;28;20462;-77
2022/07/25 06:45:46;;;;;;;5.68;2.10;;;;;;;25.86;44.71;100825.22;5148367;28;20430;-77
2022/07/25 06:48:19;;;;;;;6.32;1.80;;;;;;;25.77;44.94;100838.34;5148394;28;20422;-75
2022/07/25 06:50:51;;;;;;;9.68;2.38;;;;;;;25.74;45.13;100841.53;5150953;28;20891;-76
2022/07/25 06:53:24;;;;;;;7.50;2.27;;;;;;;25.71;45.25;100828.50;5149466;28;20427;-77
2022/07/25 06:55:56;;;;;;;7.68;2.10;;;;;;;25.69;45.47;100827.13;5150589;28;20411;-76
2022/07/25 06:58:30;;;;;;;9.00;2.33;;;;;;;25.57;45.69;100827.22;5151132;28;20787;-75
2022/07/25 07:01:02;;;;;;;5.85;1.73;;;;;;;25.53;46.01;100828.81;5140890;28;20425;-76
2022/07/25 07:03:37;;;;;;;9.20;2.60;;;;;;;25.47;46.18;100829.81;5142791;28;20434;-76
2022/07/25 07:06:10;;;;;;;8.25;1.80;;;;;;;25.35;46.60;100821.78;5151192;28;20433;-76
2022/07/25 07:08:42;;;;;;;7.55;2.30;;;;;;;25.39;46.72;100835.63;5151152;28;20430;-76
2022/07/25 07:11:15;;;;;;;10.60;2.35;;;;;;;25.29;47.21;100833.59;5150568;28;20421;-76
2022/07/25 07:13:49;;;;;;;8.07;2.17;;;;;;;25.26;47.32;100826.78;5151541;28;20775;-75
2022/07/25 07:16:21;;;;;;;7.60;1.98;;;;;;;25.26;47.39;100826.78;5150757;28;20512;-77
2022/07/25 07:18:53;;;;;;;9.55;2.85;;;;;;;25.26;47.70;100821.38;5136347;28;20950;-74
2022/07/25 07:21:26;;;;;;;8.43;2.00;;;;;;;25.27;47.61;100828.44;5131878;28;20424;-74
2022/07/25 07:23:58;;;;;;;5.00;1.95;;;;;;;25.33;47.68;100844.72;5118480;28;20514;-75
2022/07/25 07:26:30;;;;;;;11.60;2.58;;;;;;;25.31;47.94;100842.28;5131144;28;20431;-77
2022/07/25 07:29:04;;;;;;;6.40;2.38;;;;;;;25.22;48.28;100839.19;5132058;28;20423;-73
2022/07/25 07:31:36;;;;;;;8.35;2.30;;;;;;;25.20;48.44;100837.78;5129794;28;20420;-73
2022/07/25 07:34:09;;;;;;;6.93;2.13;;;;;;;25.14;48.67;100850.38;5130207;28;20420;-74
2022/07/25 07:36:41;;;;;;;6.40;1.60;;;;;;;25.09;48.89;100842.19;5130130;28;20418;-73
2022/07/25 07:39:15;;;;;;;11.15;2.78;;;;;;;25.07;48.94;100836.19;5130535;28;20487;-74
2022/07/25 07:41:47;;;;;;;9.35;2.28;;;;;;;25.04;49.24;100839.41;5135967;28;20483;-74
2022/07/25 07:44:21;;;;;;;7.97;2.35;;;;;;;24.98;49.52;100846.59;5130171;28;20424;-74
2022/07/25 07:46:53;;;;;;;10.68;2.50;;;;;;;24.99;49.54;100831.19;5133082;28;20418;-73
2022/07/25 07:49:25;;;;;;;8.40;2.28;;;;;;;25.00;49.73;100838.25;5131976;28;20432;-74
2022/07/25 07:51:57;;;;;;;5.90;2.20;;;;;;;25.03;49.68;100841.28;5134624;28;20418;-73
2022/07/25 07:57:22;;;;;;;7.93;2.58;;;;;;;25.47;49.58;100833.31;5133006;28;20416;-74
2022/07/25 07:59:56;;;;;;;7.85;2.22;;;;;;;25.70;49.52;100832.25;5130810;28;20416;-74
2022/07/25 08:02:28;;;;;;;7.80;2.67;;;;;;;25.83;49.19;100819.47;5128097;28;20428;-74
2022/07/25 08:05:00;;;;;;;8.80;2.17;;;;;;;25.92;49.28;100829.63;5126610;28;21093;-75
2022/07/25 08:07:33;;;;;;;8.48;2.30;;;;;;;25.98;49.17;100828.63;5128069;28;20420;-75
2022/07/25 08:10:07;;;;;;;10.70;4.10;;;;;;;26.02;48.91;100818.09;5130232;28;20510;-74
2022/07/25 08:12:42;;;;;;;10.60;2.00;;;;;;;26.04;48.86;100815.94;5128306;28;20420;-74
2022/07/25 08:15:17;;;;;;;6.57;1.95;;;;;;;26.04;48.96;100826.75;5129799;28;20784;-74
2022/07/25 08:17:51;;;;;;;8.48;2.35;;;;;;;26.05;48.83;100839.25;5128330;28;20526;-74
2022/07/25 08:20:23;;;;;;;7.18;1.88;;;;;;;26.03;48.93;100833.25;5130042;28;20412;-74
2022/07/25 08:22:56;;;;;;;11.38;2.63;;;;;;;26.15;48.64;100831.25;5127933;28;20515;-74
2022/07/25 08:25:28;;;;;;;12.45;2.83;;;;;;;26.39;48.66;100812.00;5127522;28;20893;-74
2022/07/25 08:28:00;;;;;;;8.88;2.47;;;;;;;26.59;48.35;100814.91;5127944;28;20851;-74
2022/07/25 08:30:36;;;;;;;12.05;2.20;;;;;;;26.76;47.93;100811.25;5126102;28;20483;-76
2022/07/25 08:33:12;;;;;;;5.22;1.77;;;;;;;26.95;47.91;100820.66;5129920;28;20453;-73
2022/07/25 08:35:48;;;;;;;6.07;1.60;;;;;;;27.31;47.40;100826.34;5133918;28;20937;-73
2022/07/25 08:38:21;;;;;;;6.72;1.63;;;;;;;27.53;47.04;100832.47;5131255;28;20424;-73
2022/07/25 08:40:54;;;;;;;4.07;1.52;;;;;;;27.70;46.81;100836.88;5129087;28;20420;-73
2022/07/25 08:43:28;;;;;;;5.93;1.63;;;;;;;27.84;46.47;100851.63;5129068;28;20409;-73
2022/07/25 08:46:02;;;;;;;3.57;1.23;;;;;;;27.93;46.29;100844.59;5128519;28;20893;-73
2022/07/25 08:48:36;;;;;;;9.27;2.10;;;;;;;27.96;46.08;100865.78;5128996;28;20412;-75
2022/07/25 08:51:09;;;;;;;10.05;1.83;;;;;;;27.95;45.92;100864.16;5135408;28;20516;-73
2022/07/25 08:53:44;;;;;;;7.00;1.80;;;;;;;27.92;45.92;100847.59;5131884;28;20464;-72
2022/07/25 08:56:16;;;;;;;4.53;1.58;;;;;;;27.93;45.92;100854.66;5128160;28;20471;-73
2022/07/25 08:58:49;;;;;;;7.20;1.90;;;;;;;27.91;45.88;100864.97;5128345;28;20416;-72
2022/07/25 09:01:23;;;;;;;8.35;1.55;;;;;;;27.82;45.83;100851.09;5127503;28;20424;-72
2022/07/25 09:03:55;;;;;;;5.80;1.77;;;;;;;27.84;45.65;100846.19;5128509;28;20415;-72
2022/07/25 09:06:28;;;;;;;5.90;1.98;;;;;;;27.96;45.39;100852.22;5129599;28;20416;-72
2022/07/25 09:09:03;;;;;;;10.63;2.50;;;;;;;27.98;45.29;100863.63;5130159;28;20424;-72
2022/07/25 09:11:37;;;;;;;5.43;1.73;;;;;;;27.95;45.14;100864.16;5129226;28;20932;-72
2022/07/25 09:14:12;;;;;;;8.20;2.47;;;;;;;27.86;45.19;100857.59;5129219;28;20567;-73
2022/07/25 09:16:46;;;;;;;6.43;2.15;;;;;;;27.84;45.08;100854.31;5134588;28;21040;-73
2022/07/25 09:19:21;;;;;;;9.45;2.03;;;;;;;27.90;44.83;100849.75;5131150;28;20432;-72
2022/07/25 09:22:02;;;;;;;10.53;2.27;;;;;;;28.14;44.67;100863.69;5132980;28;20753;-72
2022/07/25 09:24:34;;;;;;;11.17;2.43;;;;;;;28.23;44.47;100848.50;5128638;28;20412;-72
2022/07/25 09:27:10;;;;;;;8.27;2.13;;;;;;;28.27;44.49;100857.75;5130528;28;20784;-72
2022/07/25 09:29:43;;;;;;;8.48;1.98;;;;;;;28.39;44.26;100869.19;5128240;28;20428;-72
2022/07/25 09:32:20;;;;;;;6.57;2.07;;;;;;;28.47;44.13;100863.28;5128417;28;20465;-72
2022/07/25 09:34:53;;;;;;;7.53;2.22;;;;;;;28.67;43.94;100867.91;5126667;28;20754;-72
2022/07/25 09:37:27;;;;;;;14.02;2.72;;;;;;;28.72;43.71;100880.72;5127746;28;20415;-72
2022/07/25 09:40:00;;;;;;;5.37;2.27;;;;;;;28.70;43.63;100885.59;5127445;28;20848;-72
2022/07/25 09:42:35;;;;;;;8.95;1.95;;;;;;;28.55;43.73;100891.81;5125113;28;20439;-72
2022/07/25 09:45:11;;;;;;;13.63;3.10;;;;;;;28.35;43.90;100897.97;5129127;28;20476;-72
2022/07/25 09:47:57;;;;;;;8.57;1.90;;;;;;;28.17;44.05;100903.88;5131639;28;20916;-72
2022/07/25 09:50:32;;;;;;;6.07;2.10;;;;;;;28.02;44.21;100910.88;5131440;28;20435;-74
2022/07/25 09:53:04;;;;;;;14.57;3.10;;;;;;;27.91;43.93;100914.63;5133079;28;20423;-74
2022/07/25 09:55:36;;;;;;;7.40;2.60;;;;;;;27.96;44.12;100906.50;5121864;28;20896;-75
2022/07/25 09:58:09;;;;;;;8.77;2.40;;;;;;;28.05;44.06;100896.78;5133039;28;20872;-76
2022/07/25 10:00:42;;;;;;;12.02;2.67;;;;;;;28.23;43.70;100889.25;5133614;28;20423;-76
2022/07/25 10:03:31;;;;;;;6.60;2.25;;;;;;;28.40;43.52;100894.44;5133792;28;20436;-75
2022/07/25 10:06:15;;;;;;;8.60;2.40;;;;;;;28.61;43.28;100911.66;5136677;28;20424;-75
2022/07/25 10:08:49;;;;;;;10.10;2.35;;;;;;;28.76;42.97;100903.53;5130694;28;20440;-74
2022/07/25 10:11:24;;;;;;;6.90;2.22;;;;;;;28.85;42.65;100907.34;5055533;28;21062;-74
2022/07/25 10:13:56;;;;;;;12.82;2.67;;;;;;;28.95;42.55;100912.78;5125389;28;20908;-75
2022/07/25 10:16:32;;;;;;;9.98;2.38;;;;;;;28.94;42.29;100911.16;5133610;28;20412;-72
2022/07/25 10:19:05;;;;;;;11.68;2.35;;;;;;;28.86;42.46;100930.72;5128667;28;20420;-73
2022/07/25 10:21:38;;;;;;;8.10;2.10;;;;;;;28.63;42.46;100923.09;5132614;28;20424;-72
2022/07/25 10:24:11;;;;;;;11.65;3.00;;;;;;;28.44;42.73;100923.56;5130407;28;20455;-72
2022/07/25 10:26:53;;;;;;;8.98;3.00;;;;;;;28.26;42.97;100926.75;5128831;28;20450;-72
2022/07/25 10:29:34;;;;;;;10.85;2.80;;;;;;;28.11;42.79;100934.81;5129388;28;20434;-72
2022/07/25 10:32:08;;;;;;;9.57;3.00;;;;;;;27.90;42.87;100918.41;5127628;28;20416;-72
2022/07/25 10:34:53;;;;;;;10.00;2.55;;;;;;;27.91;42.97;100941.78;5129423;28;20508;-72
2022/07/25 10:37:28;;;;;;;9.90;2.83;;;;;;;27.83;43.01;100938.75;5131843;28;20416;-71
2022/07/25 10:40:01;;;;;;;15.13;3.03;;;;;;;27.74;43.18;100941.09;5131378;28;20443;-72
2022/07/25 10:42:34;;;;;;;12.52;2.75;;;;;;;27.73;43.14;100934.03;5130089;28;20843;-74
2022/07/25 10:45:08;;;;;;;9.77;2.80;;;;;;;27.76;43.12;100941.66;5132147;28;20476;-73
2022/07/25 10:47:50;;;;;;;11.50;2.95;;;;;;;27.66;43.31;100938.88;5132574;28;20529;-73
2022/07/25 10:50:25;;;;;;;14.02;2.83;;;;;;;27.63;43.31;100937.50;5131952;28;20420;-73
2022/07/25 10:53:06;;;;;;;10.05;2.63;;;;;;;27.87;43.18;100948.78;5131086;28;20424;-74
2022/07/25 10:55:38;;;;;;;12.48;3.05;;;;;;;28.24;42.83;100956.03;5135160;28;20418;-74
2022/07/25 10:58:11;;;;;;;15.57;3.72;;;;;;;28.52;42.58;100956.72;5148793;28;20422;-72
2022/07/25 11:00:44;;;;;;;9.70;2.90;;;;;;;28.53;42.44;100950.25;5150097;28;20415;-73
2022/07/25 11:03:17;;;;;;;10.67;3.03;;;;;;;28.45;42.45;100946.94;5148930;28;20514;-74
2022/07/25 11:05:53;;;;;;;12.10;2.88;;;;;;;28.26;42.54;100948.47;5150145;28;21029;-75
2022/07/25 11:08:32;;;;;;;9.32;2.15;;;;;;;28.16;42.68;100943.81;5149567;28;20493;-74
2022/07/25 11:11:04;;;;;;;10.05;2.60;;;;;;;28.23;42.60;100944.38;5138710;28;20826;-74
2022/07/25 11:13:41;;;;;;;12.07;3.00;;;;;;;28.39;42.27;100947.16;5144310;28;20426;-72
2022/07/25 11:16:13;;;;;;;14.55;3.05;;;;;;;28.55;42.22;100958.91;5150894;28;21047;-73
2022/07/25 11:18:45;;;;;;;10.88;3.50;;;;;;;28.78;41.80;100950.28;5150344;28;20422;-73
2022/07/25 11:21:19;;;;;;;9.77;2.65;;;;;;;28.99;41.62;100947.59;5149073;28;20425;-73
2022/07/25 11:23:52;;;;;;;13.15;3.08;;;;;;;29.15;41.42;100949.28;5147181;28;20501;-73
2022/07/25 11:26:24;;;;;;;9.38;3.22;;;;;;;29.18;41.04;100948.75;5150007;28;20771;-73
2022/07/25 11:28:56;;;;;;;10.70;2.78;;;;;;;29.23;40.92;100946.00;5147275;28;20423;-73
2022/07/25 11:31:29;;;;;;;8.55;2.97;;;;;;;29.40;40.73;100956.63;5148224;28;20428;-73
2022/07/25 11:34:01;;;;;;;8.65;2.20;;;;;;;29.43;40.78;100945.22;5148064;28;20414;-74
2022/07/25 11:36:35;;;;;;;10.52;3.15;;;;;;;29.41;40.41;100953.63;5142666;28;20940;-75
2022/07/25 11:39:07;;;;;;;11.63;2.97;;;;;;;29.21;40.70;100959.09;5133032;28;20422;-74
2022/07/25 11:41:39;;;;;;;11.15;2.60;;;;;;;29.01;40.95;100959.88;5143835;28;20510;-74
2022/07/25 11:44:12;;;;;;;10.20;2.72;;;;;;;28.83;40.80;100974.75;5129084;28;20442;-76
2022/07/25 11:46:46;;;;;;;10.23;2.53;;;;;;;28.70;40.83;100969.84;5131576;28;20479;-75
2022/07/25 11:49:18;;;;;;;9.80;2.85;;;;;;;28.59;40.88;100977.16;5128634;28;20420;-75
2022/07/25 11:51:52;;;;;;;10.43;2.67;;;;;;;28.47;40.94;100965.69;5129728;28;20432;-76
2022/07/25 11:54:24;;;;;;;11.85;3.38;;;;;;;28.47;40.88;100977.38;5127483;28;20419;-76
2022/07/25 11:56:56;;;;;;;11.77;3.40;;;;;;;28.45;40.83;100984.16;5127389;28;20435;-75